createdAt,value
2018-02-25T00:00:10.325Z,0
2018-02-25T00:01:20.048Z,0
2018-02-25T00:02:30.168Z,0
2018-02-25T00:03:40.167Z,0
2018-02-25T00:04:50.160Z,0
2018-02-25T00:06:00.154Z,0
2018-02-25T00:07:09.882Z,0
2018-02-25T00:08:19.609Z,0
2018-02-25T00:09:29.339Z,0
2018-02-25T00:10:39.329Z,0
2018-02-25T00:11:49.328Z,0
2018-02-25T00:12:59.056Z,0
2018-02-25T00:14:09.044Z,0
2018-02-25T00:15:19.033Z,0
2018-02-25T00:16:28.759Z,0
2018-02-25T00:17:38.760Z,0
2018-02-25T00:18:48.493Z,0
2018-02-25T00:19:58.214Z,0
2018-02-25T00:21:08.206Z,0
2018-02-25T00:22:17.935Z,0
2018-02-25T00:23:27.927Z,0
2018-02-25T00:24:37.916Z,0
2018-02-25T00:25:47.645Z,0
2018-02-25T00:26:57.632Z,0
2018-02-25T00:28:07.679Z,0
2018-02-25T00:29:17.679Z,0
2018-02-25T00:30:27.677Z,0
2018-02-25T00:31:37.401Z,0
2018-02-25T00:32:47.392Z,0
2018-02-25T00:33:57.391Z,0
2018-02-25T00:35:07.386Z,0
2018-02-25T00:36:17.373Z,0
2018-02-25T00:37:27.368Z,0
2018-02-25T00:38:37.461Z,0
2018-02-25T00:39:47.457Z,0
2018-02-25T00:40:57.453Z,0
2018-02-25T00:42:07.448Z,0
2018-02-25T00:43:17.169Z,0
2018-02-25T00:44:27.203Z,0
2018-02-25T00:45:36.664Z,0
2018-02-25T00:46:46.661Z,0
2018-02-25T00:47:56.653Z,0
2018-02-25T00:49:06.652Z,0
2018-02-25T00:50:16.648Z,0
2018-02-25T00:51:26.649Z,0
2018-02-25T00:52:36.376Z,0
2018-02-25T00:53:46.371Z,0
2018-02-25T00:54:56.362Z,0
2018-02-25T00:56:06.080Z,0
2018-02-25T00:57:16.068Z,0
2018-02-25T00:58:26.063Z,0
2018-02-25T00:59:35.788Z,0
2018-02-25T01:00:45.980Z,0
2018-02-25T01:01:55.703Z,0
2018-02-25T01:03:05.429Z,0
2018-02-25T01:04:15.429Z,0
2018-02-25T01:05:25.417Z,0
2018-02-25T01:06:35.143Z,0
2018-02-25T01:07:45.126Z,0
2018-02-25T01:08:54.581Z,0
2018-02-25T01:10:04.306Z,0
2018-02-25T01:11:14.295Z,0
2018-02-25T01:12:24.032Z,0
2018-02-25T01:13:34.027Z,0
2018-02-25T01:14:44.017Z,0
2018-02-25T01:15:54.015Z,0
2018-02-25T01:17:04.021Z,0
2018-02-25T01:18:13.478Z,0
2018-02-25T01:19:23.471Z,0
2018-02-25T01:20:33.479Z,0
2018-02-25T01:21:43.211Z,0
2018-02-25T01:22:53.200Z,0
2018-02-25T01:24:03.207Z,0
2018-02-25T01:25:13.198Z,0
2018-02-25T01:26:23.187Z,0
2018-02-25T01:27:32.914Z,0
2018-02-25T01:28:42.905Z,0
2018-02-25T01:29:52.898Z,0
2018-02-25T01:31:02.887Z,0
2018-02-25T01:32:12.881Z,0
2018-02-25T01:33:22.608Z,0
2018-02-25T01:34:32.336Z,0
2018-02-25T01:35:42.058Z,0
2018-02-25T01:36:52.101Z,0
2018-02-25T01:38:01.837Z,0
2018-02-25T01:39:11.830Z,0
2018-02-25T01:40:21.552Z,0
2018-02-25T01:41:31.011Z,0
2018-02-25T01:42:41.002Z,0
2018-02-25T01:43:50.728Z,0
2018-02-25T01:45:00.720Z,0
2018-02-25T01:46:10.715Z,0
2018-02-25T01:47:20.709Z,0
2018-02-25T01:48:30.801Z,0
2018-02-25T01:49:40.795Z,0
2018-02-25T01:50:50.780Z,0
2018-02-25T01:52:00.784Z,0
2018-02-25T01:53:10.515Z,0
2018-02-25T01:54:20.240Z,0
2018-02-25T01:55:30.231Z,0
2018-02-25T01:56:39.968Z,0
2018-02-25T01:57:49.429Z,0
2018-02-25T01:58:59.431Z,0
2018-02-25T02:00:09.155Z,0
2018-02-25T02:01:18.875Z,0
2018-02-25T02:02:28.869Z,0
2018-02-25T02:03:38.598Z,0
2018-02-25T02:04:48.593Z,0
2018-02-25T02:05:58.331Z,0
2018-02-25T02:07:08.068Z,0
2018-02-25T02:08:18.063Z,0
2018-02-25T02:09:28.058Z,0
2018-02-25T02:10:38.052Z,0
2018-02-25T02:11:48.040Z,0
2018-02-25T02:12:58.029Z,0
2018-02-25T02:14:08.022Z,0
2018-02-25T02:15:18.010Z,0
2018-02-25T02:16:27.996Z,0
2018-02-25T02:17:37.771Z,0
2018-02-25T02:18:47.767Z,0
2018-02-25T02:19:57.486Z,0
2018-02-25T02:21:07.216Z,0
2018-02-25T02:22:16.944Z,0
2018-02-25T02:23:26.934Z,0
2018-02-25T02:24:36.931Z,0
2018-02-25T02:25:46.926Z,0
2018-02-25T02:26:56.652Z,0
2018-02-25T02:28:06.637Z,0
2018-02-25T02:29:16.364Z,0
2018-02-25T02:30:25.566Z,0
2018-02-25T02:31:35.299Z,0
2018-02-25T02:32:45.300Z,0
2018-02-25T02:33:55.306Z,0
2018-02-25T02:35:05.036Z,0
2018-02-25T02:36:15.043Z,0
2018-02-25T02:37:25.047Z,0
2018-02-25T02:38:35.035Z,0
2018-02-25T02:39:45.057Z,0
2018-02-25T02:40:55.055Z,0
2018-02-25T02:42:04.787Z,0
2018-02-25T02:43:14.789Z,0
2018-02-25T02:44:24.792Z,0
2018-02-25T02:45:34.520Z,0
2018-02-25T02:46:44.523Z,0
2018-02-25T02:47:54.528Z,0
2018-02-25T02:49:04.532Z,0
2018-02-25T02:50:14.252Z,0
2018-02-25T02:51:23.974Z,0
2018-02-25T02:52:33.979Z,0
2018-02-25T02:53:43.720Z,0
2018-02-25T02:54:53.726Z,0
2018-02-25T02:56:03.716Z,0
2018-02-25T02:57:13.457Z,0
2018-02-25T02:58:23.456Z,0
2018-02-25T02:59:33.187Z,0
2018-02-25T03:00:43.168Z,0
2018-02-25T03:01:52.901Z,0
2018-02-25T03:03:02.632Z,0
2018-02-25T03:04:12.416Z,0
2018-02-25T03:05:22.412Z,0
2018-02-25T03:06:32.146Z,0
2018-02-25T03:07:42.143Z,0
2018-02-25T03:08:51.874Z,0
2018-02-25T03:10:01.432Z,0
2018-02-25T03:11:11.156Z,0
2018-02-25T03:12:21.155Z,0
2018-02-25T03:13:31.143Z,0
2018-02-25T03:14:41.132Z,0
2018-02-25T03:15:50.860Z,0
2018-02-25T03:17:00.583Z,0
2018-02-25T03:18:10.568Z,0
2018-02-25T03:19:20.562Z,0
2018-02-25T03:20:30.552Z,0
2018-02-25T03:21:40.649Z,0
2018-02-25T03:22:50.638Z,0
2018-02-25T03:24:00.374Z,0
2018-02-25T03:25:10.097Z,0
2018-02-25T03:26:19.554Z,0
2018-02-25T03:27:29.848Z,0
2018-02-25T03:28:39.573Z,0
2018-02-25T03:29:49.563Z,0
2018-02-25T03:30:59.558Z,0
2018-02-25T03:32:09.552Z,0
2018-02-25T03:33:19.541Z,0
2018-02-25T03:34:29.267Z,0
2018-02-25T03:35:39.256Z,0
2018-02-25T03:36:48.975Z,0
2018-02-25T03:37:58.969Z,0
2018-02-25T03:39:09.056Z,0
2018-02-25T03:40:19.056Z,0
2018-02-25T03:41:28.514Z,0
2018-02-25T03:42:38.502Z,0
2018-02-25T03:43:48.490Z,0
2018-02-25T03:44:58.212Z,0
2018-02-25T03:46:08.204Z,0
2018-02-25T03:47:18.191Z,0
2018-02-25T03:48:28.182Z,0
2018-02-25T03:49:37.639Z,0
2018-02-25T03:50:47.641Z,0
2018-02-25T03:51:57.635Z,0
2018-02-25T03:53:07.621Z,0
2018-02-25T03:54:17.621Z,0
2018-02-25T03:55:27.356Z,0
2018-02-25T03:56:37.078Z,0
2018-02-25T03:57:47.066Z,0
2018-02-25T03:58:56.795Z,0
2018-02-25T04:03:14.690Z,0
2018-02-25T04:04:24.682Z,0
2018-02-25T04:05:34.677Z,0
2018-02-25T04:06:44.666Z,0
2018-02-25T04:07:54.386Z,0
2018-02-25T04:09:04.387Z,0
2018-02-25T04:10:14.115Z,0
2018-02-25T04:11:24.134Z,0
2018-02-25T04:12:34.120Z,0
2018-02-25T04:13:44.106Z,0
2018-02-25T04:14:53.831Z,0
2018-02-25T04:16:03.292Z,0
2018-02-25T04:17:13.282Z,0
2018-02-25T04:18:23.269Z,0
2018-02-25T04:19:32.991Z,0
2018-02-25T04:20:42.444Z,0
2018-02-25T04:21:52.434Z,0
2018-02-25T04:23:02.427Z,0
2018-02-25T04:24:11.880Z,0
2018-02-25T04:25:21.870Z,0
2018-02-25T04:26:31.854Z,0
2018-02-25T04:27:41.845Z,0
2018-02-25T04:28:51.568Z,0
2018-02-25T04:30:01.295Z,0
2018-02-25T04:31:10.751Z,0
2018-02-25T04:32:20.745Z,0
2018-02-25T04:33:30.472Z,0
2018-02-25T04:34:40.465Z,0
2018-02-25T04:35:50.506Z,0
2018-02-25T04:37:00.227Z,0
2018-02-25T04:38:10.214Z,0
2018-02-25T04:39:20.210Z,0
2018-02-25T04:40:30.197Z,0
2018-02-25T04:41:40.185Z,0
2018-02-25T04:42:49.907Z,0
2018-02-25T04:43:59.900Z,0
2018-02-25T04:45:09.625Z,0
2018-02-25T04:46:19.633Z,0
2018-02-25T04:47:29.624Z,0
2018-02-25T04:48:39.615Z,0
2018-02-25T04:49:49.615Z,0
2018-02-25T04:50:59.606Z,0
2018-02-25T04:52:09.598Z,0
2018-02-25T04:53:19.326Z,0
2018-02-25T04:54:29.321Z,0
2018-02-25T04:55:39.314Z,0
2018-02-25T04:56:49.312Z,0
2018-02-25T04:57:59.302Z,0
2018-02-25T04:59:09.298Z,0
2018-02-25T05:00:19.295Z,0
2018-02-25T05:01:29.285Z,0
2018-02-25T05:02:39.276Z,0
2018-02-25T05:03:49.262Z,0
2018-02-25T05:04:59.271Z,0
2018-02-25T05:06:09.255Z,0
2018-02-25T05:07:19.245Z,0
2018-02-25T05:08:29.232Z,0
2018-02-25T05:09:39.223Z,0
2018-02-25T05:10:49.210Z,0
2018-02-25T05:11:59.208Z,0
2018-02-25T05:13:09.204Z,0
2018-02-25T05:14:19.193Z,0
2018-02-25T05:15:29.198Z,0
2018-02-25T05:16:39.194Z,0
2018-02-25T05:17:49.183Z,0
2018-02-25T05:18:59.270Z,0
2018-02-25T05:20:08.990Z,0
2018-02-25T05:21:18.977Z,0
2018-02-25T05:22:28.973Z,0
2018-02-25T05:23:38.959Z,0
2018-02-25T05:24:48.679Z,0
2018-02-25T05:25:58.667Z,0
2018-02-25T05:27:08.671Z,0
2018-02-25T05:28:18.664Z,0
2018-02-25T05:29:28.657Z,0
2018-02-25T05:30:38.647Z,0
2018-02-25T05:31:48.365Z,0
2018-02-25T05:32:58.406Z,0
2018-02-25T05:34:08.138Z,0
2018-02-25T05:35:18.134Z,0
2018-02-25T05:36:27.956Z,0
2018-02-25T05:37:37.952Z,0
2018-02-25T05:38:47.946Z,0
2018-02-25T05:39:57.949Z,0
2018-02-25T05:41:07.942Z,0
2018-02-25T05:42:18.033Z,0
2018-02-25T05:43:27.764Z,0
2018-02-25T05:44:37.755Z,0
2018-02-25T05:45:47.748Z,0
2018-02-25T05:46:57.467Z,0
2018-02-25T05:48:07.196Z,0
2018-02-25T05:49:17.191Z,0
2018-02-25T05:50:27.183Z,0
2018-02-25T05:51:37.173Z,0
2018-02-25T05:52:46.903Z,0
2018-02-25T05:53:56.894Z,0
2018-02-25T05:55:06.883Z,0
2018-02-25T05:56:16.880Z,0
2018-02-25T05:57:26.869Z,0
2018-02-25T05:58:36.589Z,0
2018-02-25T05:59:46.325Z,0
2018-02-25T06:00:56.316Z,0
2018-02-25T06:02:06.304Z,0
2018-02-25T06:03:16.288Z,0
2018-02-25T06:04:26.278Z,0
2018-02-25T06:05:35.999Z,0
2018-02-25T06:06:45.997Z,0
2018-02-25T06:07:55.997Z,0
2018-02-25T06:09:05.994Z,0
2018-02-25T06:10:15.716Z,0
2018-02-25T06:11:25.439Z,0
2018-02-25T06:12:35.158Z,0
2018-02-25T06:13:44.880Z,0
2018-02-25T06:14:54.341Z,0
2018-02-25T06:16:04.333Z,0
2018-02-25T06:17:14.053Z,0
2018-02-25T06:18:23.779Z,5
2018-02-25T06:19:33.513Z,5
2018-02-25T06:20:43.512Z,5
2018-02-25T06:21:53.503Z,5
2018-02-25T06:23:03.506Z,5
2018-02-25T06:24:13.503Z,5
2018-02-25T06:25:23.501Z,5
2018-02-25T06:26:33.496Z,5
2018-02-25T06:27:43.489Z,10
2018-02-25T06:28:53.223Z,10
2018-02-25T06:30:03.220Z,10
2018-02-25T06:31:13.209Z,10
2018-02-25T06:32:22.941Z,10
2018-02-25T06:33:32.938Z,15
2018-02-25T06:34:42.664Z,15
2018-02-25T06:35:52.660Z,15
2018-02-25T06:37:02.651Z,15
2018-02-25T06:38:12.640Z,15
2018-02-25T06:39:22.640Z,20
2018-02-25T06:40:32.625Z,20
2018-02-25T06:41:42.349Z,20
2018-02-25T06:42:52.072Z,25
2018-02-25T06:44:02.056Z,25
2018-02-25T06:45:12.086Z,25
2018-02-25T06:46:22.072Z,25
2018-02-25T06:47:32.064Z,30
2018-02-25T06:48:42.050Z,30
2018-02-25T06:49:51.510Z,30
2018-02-25T06:51:01.232Z,35
2018-02-25T06:52:11.222Z,35
2018-02-25T06:53:21.221Z,40
2018-02-25T06:54:30.946Z,40
2018-02-25T06:55:40.938Z,45
2018-02-25T06:56:50.663Z,45
2018-02-25T06:58:00.653Z,50
2018-02-25T06:59:10.646Z,50
2018-02-25T07:00:20.633Z,55
2018-02-25T07:01:30.353Z,60
2018-02-25T07:02:40.078Z,60
2018-02-25T07:03:49.803Z,65
2018-02-25T07:04:59.800Z,65
2018-02-25T07:06:09.262Z,65
2018-02-25T07:07:19.256Z,70
2018-02-25T07:08:29.247Z,70
2018-02-25T07:09:39.239Z,75
2018-02-25T07:10:48.964Z,75
2018-02-25T07:11:58.952Z,75
2018-02-25T07:13:08.945Z,80
2018-02-25T07:14:18.940Z,80
2018-02-25T07:15:28.663Z,85
2018-02-25T07:16:38.653Z,90
2018-02-25T07:17:48.375Z,90
2018-02-25T07:18:58.365Z,85
2018-02-25T07:20:08.359Z,85
2018-02-25T07:21:18.403Z,85
2018-02-25T07:22:28.401Z,85
2018-02-25T07:23:38.397Z,90
2018-02-25T07:24:48.387Z,90
2018-02-25T07:25:58.377Z,95
2018-02-25T07:27:07.840Z,95
2018-02-25T07:28:17.830Z,100
2018-02-25T07:29:27.283Z,105
2018-02-25T07:30:37.270Z,105
2018-02-25T07:31:46.786Z,105
2018-02-25T07:32:56.785Z,105
2018-02-25T07:34:06.281Z,105
2018-02-25T07:35:16.014Z,105
2018-02-25T07:36:26.021Z,110
2018-02-25T07:37:36.014Z,115
2018-02-25T07:38:45.996Z,120
2018-02-25T07:39:55.991Z,120
2018-02-25T07:41:05.984Z,115
2018-02-25T07:42:16.099Z,110
2018-02-25T07:43:26.098Z,110
2018-02-25T07:44:35.828Z,105
2018-02-25T07:45:45.552Z,110
2018-02-25T07:46:55.540Z,115
2018-02-25T07:48:05.267Z,120
2018-02-25T07:49:15.255Z,130
2018-02-25T07:50:25.245Z,145
2018-02-25T07:51:35.087Z,150
2018-02-25T07:52:45.076Z,160
2018-02-25T07:53:54.798Z,165
2018-02-25T07:55:04.803Z,165
2018-02-25T07:56:14.797Z,160
2018-02-25T07:57:24.520Z,160
2018-02-25T07:58:34.246Z,160
2018-02-25T07:59:43.971Z,155
2018-02-25T08:00:53.962Z,150
2018-02-25T08:02:03.955Z,150
2018-02-25T08:03:13.943Z,150
2018-02-25T08:04:23.943Z,155
2018-02-25T08:05:33.982Z,160
2018-02-25T08:06:43.980Z,180
2018-02-25T08:07:53.717Z,190
2018-02-25T08:09:03.439Z,200
2018-02-25T08:10:13.170Z,210
2018-02-25T08:11:23.155Z,220
2018-02-25T08:12:32.878Z,225
2018-02-25T08:13:42.893Z,230
2018-02-25T08:14:52.888Z,220
2018-02-25T08:16:02.886Z,210
2018-02-25T08:17:12.879Z,205
2018-02-25T08:18:22.864Z,200
2018-02-25T08:19:32.424Z,195
2018-02-25T08:20:42.419Z,195
2018-02-25T08:21:52.144Z,200
2018-02-25T08:23:02.147Z,205
2018-02-25T08:24:12.145Z,205
2018-02-25T08:25:22.144Z,205
2018-02-25T08:26:31.867Z,205
2018-02-25T08:27:41.862Z,210
2018-02-25T08:28:51.858Z,210
2018-02-25T08:30:01.348Z,210
2018-02-25T08:31:11.345Z,210
2018-02-25T08:32:21.087Z,215
2018-02-25T08:33:31.080Z,215
2018-02-25T08:34:41.069Z,215
2018-02-25T08:35:50.531Z,220
2018-02-25T08:37:00.525Z,220
2018-02-25T08:38:10.521Z,220
2018-02-25T08:39:20.246Z,220
2018-02-25T08:40:29.701Z,225
2018-02-25T08:41:39.691Z,230
2018-02-25T08:42:49.691Z,235
2018-02-25T08:43:59.685Z,240
2018-02-25T08:45:09.677Z,240
2018-02-25T08:46:19.405Z,245
2018-02-25T08:47:29.395Z,250
2018-02-25T08:48:39.480Z,260
2018-02-25T08:49:49.472Z,265
2018-02-25T08:50:59.196Z,270
2018-02-25T08:52:09.189Z,270
2018-02-25T08:53:19.184Z,270
2018-02-25T08:54:28.912Z,270
2018-02-25T08:55:38.908Z,270
2018-02-25T08:56:48.900Z,270
2018-02-25T08:57:58.914Z,265
2018-02-25T08:59:08.914Z,265
2018-02-25T09:00:18.905Z,280
2018-02-25T09:01:28.898Z,290
2018-02-25T09:02:38.888Z,305
2018-02-25T09:03:48.346Z,310
2018-02-25T09:04:58.332Z,305
2018-02-25T09:06:08.431Z,295
2018-02-25T09:07:18.425Z,285
2018-02-25T09:08:28.149Z,275
2018-02-25T09:09:37.877Z,270
2018-02-25T09:10:47.598Z,265
2018-02-25T09:11:57.329Z,270
2018-02-25T09:13:07.316Z,275
2018-02-25T09:14:17.128Z,290
2018-02-25T09:15:27.120Z,315
2018-02-25T09:16:36.849Z,335
2018-02-25T09:17:46.844Z,355
2018-02-25T09:18:56.837Z,370
2018-02-25T09:20:06.568Z,385
2018-02-25T09:21:16.563Z,385
2018-02-25T09:22:26.556Z,380
2018-02-25T09:23:36.545Z,380
2018-02-25T09:24:46.283Z,380
2018-02-25T09:25:56.269Z,385
2018-02-25T09:27:05.734Z,375
2018-02-25T09:28:15.197Z,385
2018-02-25T09:29:25.193Z,390
2018-02-25T09:30:35.078Z,395
2018-02-25T09:31:45.119Z,400
2018-02-25T09:32:55.113Z,395
2018-02-25T09:34:04.838Z,390
2018-02-25T09:35:14.842Z,380
2018-02-25T09:36:24.838Z,370
2018-02-25T09:37:34.295Z,360
2018-02-25T09:38:44.026Z,355
2018-02-25T09:39:54.023Z,355
2018-02-25T09:41:04.062Z,360
2018-02-25T09:42:14.045Z,365
2018-02-25T09:43:24.036Z,375
2018-02-25T09:44:33.777Z,385
2018-02-25T09:45:43.232Z,390
2018-02-25T09:46:53.226Z,390
2018-02-25T09:48:02.693Z,390
2018-02-25T09:49:12.424Z,390
2018-02-25T09:50:22.413Z,390
2018-02-25T09:51:31.870Z,390
2018-02-25T09:52:41.876Z,390
2018-02-25T09:53:51.341Z,390
2018-02-25T09:55:01.343Z,390
2018-02-25T09:56:11.068Z,395
2018-02-25T09:57:20.793Z,385
2018-02-25T09:58:30.851Z,385
2018-02-25T09:59:40.313Z,385
2018-02-25T10:00:50.040Z,385
2018-02-25T10:01:59.504Z,385
2018-02-25T10:03:09.229Z,395
2018-02-25T10:04:19.579Z,400
2018-02-25T10:05:29.303Z,410
2018-02-25T10:06:39.290Z,425
2018-02-25T10:07:48.745Z,430
2018-02-25T10:08:58.787Z,430
2018-02-25T10:10:08.248Z,425
2018-02-25T10:11:17.972Z,425
2018-02-25T10:12:27.708Z,430
2018-02-25T10:13:37.431Z,440
2018-02-25T10:14:47.422Z,435
2018-02-25T10:15:57.147Z,430
2018-02-25T10:17:06.868Z,425
2018-02-25T10:18:16.887Z,435
2018-02-25T10:19:26.620Z,430
2018-02-25T10:20:36.628Z,425
2018-02-25T10:21:46.632Z,435
2018-02-25T10:22:56.355Z,440
2018-02-25T10:24:06.355Z,455
2018-02-25T10:25:16.349Z,450
2018-02-25T10:26:26.350Z,445
2018-02-25T10:27:35.898Z,445
2018-02-25T10:28:45.948Z,450
2018-02-25T10:29:55.403Z,445
2018-02-25T10:31:05.129Z,445
2018-02-25T10:32:14.859Z,445
2018-02-25T10:33:24.313Z,440
2018-02-25T10:34:34.037Z,445
2018-02-25T10:35:43.507Z,450
2018-02-25T10:36:52.699Z,455
2018-02-25T10:38:02.692Z,460
2018-02-25T10:39:12.689Z,450
2018-02-25T10:40:22.418Z,440
2018-02-25T10:41:32.413Z,435
2018-02-25T10:42:42.154Z,440
2018-02-25T10:43:52.153Z,445
2018-02-25T10:45:01.880Z,450
2018-02-25T10:46:11.610Z,455
2018-02-25T10:47:21.338Z,445
2018-02-25T10:48:30.795Z,440
2018-02-25T10:49:40.794Z,435
2018-02-25T10:50:50.789Z,430
2018-02-25T10:52:00.513Z,430
2018-02-25T10:53:10.503Z,430
2018-02-25T10:54:20.496Z,435
2018-02-25T10:55:30.497Z,440
2018-02-25T10:56:40.228Z,440
2018-02-25T10:57:50.226Z,440
2018-02-25T10:59:00.218Z,430
2018-02-25T11:00:10.222Z,425
2018-02-25T11:01:20.225Z,420
2018-02-25T11:02:30.231Z,420
2018-02-25T11:03:40.232Z,405
2018-02-25T11:04:49.957Z,405
2018-02-25T11:05:59.950Z,405
2018-02-25T11:07:09.939Z,415
2018-02-25T11:08:20.037Z,420
2018-02-25T11:09:30.037Z,410
2018-02-25T11:10:40.025Z,410
2018-02-25T11:11:50.024Z,420
2018-02-25T11:12:59.747Z,435
2018-02-25T11:14:09.740Z,445
2018-02-25T11:15:19.490Z,450
2018-02-25T11:16:29.486Z,460
2018-02-25T11:17:39.210Z,460
2018-02-25T11:18:49.200Z,460
2018-02-25T11:19:58.929Z,455
2018-02-25T11:21:08.663Z,440
2018-02-25T11:22:18.656Z,430
2018-02-25T11:23:28.379Z,435
2018-02-25T11:24:37.840Z,430
2018-02-25T11:25:47.834Z,450
2018-02-25T11:26:57.563Z,450
2018-02-25T11:28:07.558Z,460
2018-02-25T11:29:17.546Z,465
2018-02-25T11:30:27.582Z,470
2018-02-25T11:31:37.804Z,470
2018-02-25T11:32:47.595Z,475
2018-02-25T11:33:57.584Z,480
2018-02-25T11:35:07.318Z,490
2018-02-25T11:36:17.304Z,500
2018-02-25T11:37:27.316Z,515
2018-02-25T11:38:37.309Z,525
2018-02-25T11:39:47.300Z,540
2018-02-25T11:40:57.300Z,565
2018-02-25T11:42:07.042Z,575
2018-02-25T11:43:16.830Z,580
2018-02-25T11:44:26.288Z,595
2018-02-25T11:45:36.281Z,610
2018-02-25T11:46:46.007Z,625
2018-02-25T11:47:56.001Z,625
2018-02-25T11:49:05.512Z,640
2018-02-25T11:50:15.238Z,650
2018-02-25T11:51:24.965Z,645
2018-02-25T11:52:35.029Z,640
2018-02-25T11:53:45.035Z,655
2018-02-25T11:54:55.130Z,655
2018-02-25T11:56:04.859Z,655
2018-02-25T11:57:14.859Z,645
2018-02-25T11:58:24.905Z,610
2018-02-25T11:59:34.098Z,595
2018-02-25T12:00:43.557Z,590
2018-02-25T12:01:53.288Z,585
2018-02-25T12:03:03.014Z,565
2018-02-25T12:04:12.206Z,575
2018-02-25T12:05:22.207Z,610
2018-02-25T12:06:32.218Z,590
2018-02-25T12:07:41.949Z,630
2018-02-25T12:08:51.946Z,650
2018-02-25T12:10:01.961Z,655
2018-02-25T12:11:11.959Z,725
2018-02-25T12:12:21.961Z,735
2018-02-25T12:13:31.962Z,675
2018-02-25T12:14:41.958Z,680
2018-02-25T12:15:51.689Z,765
2018-02-25T12:17:01.687Z,690
2018-02-25T12:18:11.739Z,655
2018-02-25T12:19:21.741Z,805
2018-02-25T12:20:31.754Z,865
2018-02-25T12:21:41.757Z,870
2018-02-25T12:22:51.768Z,785
2018-02-25T12:24:01.499Z,740
2018-02-25T12:25:11.500Z,690
2018-02-25T12:26:21.507Z,580
2018-02-25T12:27:31.501Z,615
2018-02-25T12:28:41.248Z,655
2018-02-25T12:29:51.342Z,695
2018-02-25T12:31:01.335Z,690
2018-02-25T12:32:11.064Z,700
2018-02-25T12:33:21.072Z,750
2018-02-25T12:34:31.079Z,630
2018-02-25T12:35:41.094Z,635
2018-02-25T12:36:50.826Z,565
2018-02-25T12:38:00.830Z,790
2018-02-25T12:39:10.300Z,695
2018-02-25T12:40:20.304Z,840
2018-02-25T12:41:30.029Z,955
2018-02-25T12:42:40.022Z,700
2018-02-25T12:43:49.762Z,755
2018-02-25T12:44:59.493Z,1090
2018-02-25T12:46:09.250Z,1130
2018-02-25T12:47:19.246Z,1145
2018-02-25T12:48:29.255Z,730
2018-02-25T12:49:39.259Z,1255
2018-02-25T12:50:49.285Z,1365
2018-02-25T12:51:58.748Z,1600
2018-02-25T12:53:08.482Z,2040
2018-02-25T12:54:18.221Z,2480
2018-02-25T12:55:27.962Z,1665
2018-02-25T12:56:37.970Z,1745
2018-02-25T12:57:48.012Z,1735
2018-02-25T12:58:58.021Z,1535
2018-02-25T13:00:07.497Z,1290
2018-02-25T13:01:17.508Z,1710
2018-02-25T13:02:27.518Z,1695
2018-02-25T13:03:37.070Z,1710
2018-02-25T13:04:47.077Z,1765
2018-02-25T13:05:57.078Z,1710
2018-02-25T13:07:06.817Z,1650
2018-02-25T13:08:16.842Z,1740
2018-02-25T13:09:26.588Z,1740
2018-02-25T13:10:36.331Z,1625
2018-02-25T13:11:46.065Z,865
2018-02-25T13:12:55.805Z,1385
2018-02-25T13:14:05.817Z,860
2018-02-25T13:15:15.816Z,1035
2018-02-25T13:16:25.572Z,485
2018-02-25T13:17:35.632Z,450
2018-02-25T13:18:45.679Z,625
2018-02-25T13:19:55.686Z,900
2018-02-25T13:21:05.431Z,955
2018-02-25T13:22:15.175Z,925
2018-02-25T13:23:25.183Z,985
2018-02-25T13:24:35.307Z,700
2018-02-25T13:25:45.315Z,665
2018-02-25T13:26:55.318Z,580
2018-02-25T13:28:05.326Z,590
2018-02-25T13:29:14.806Z,735
2018-02-25T13:30:24.549Z,710
2018-02-25T13:31:34.569Z,630
2018-02-25T13:32:44.567Z,670
2018-02-25T13:33:54.569Z,720
2018-02-25T13:35:04.306Z,745
2018-02-25T13:36:14.045Z,580
2018-02-25T13:37:23.785Z,645
2018-02-25T13:38:33.788Z,645
2018-02-25T13:39:43.795Z,540
2018-02-25T13:40:53.793Z,630
2018-02-25T13:42:03.800Z,795
2018-02-25T13:43:13.271Z,690
2018-02-25T13:44:23.008Z,550
2018-02-25T13:45:33.015Z,450
2018-02-25T13:46:43.017Z,480
2018-02-25T13:47:52.751Z,510
2018-02-25T13:49:02.749Z,510
2018-02-25T13:50:12.217Z,530
2018-02-25T13:51:22.224Z,585
2018-02-25T13:52:32.222Z,560
2018-02-25T13:53:42.217Z,490
2018-02-25T13:54:52.222Z,575
2018-02-25T13:56:01.957Z,620
2018-02-25T13:57:11.725Z,555
2018-02-25T13:58:21.729Z,470
2018-02-25T13:59:31.197Z,410
2018-02-25T14:00:41.200Z,395
2018-02-25T14:01:50.672Z,365
2018-02-25T14:03:00.408Z,460
2018-02-25T14:04:10.420Z,505
2018-02-25T14:05:20.423Z,615
2018-02-25T14:06:30.421Z,810
2018-02-25T14:07:40.424Z,815
2018-02-25T14:08:49.887Z,620
2018-02-25T14:09:59.894Z,545
2018-02-25T14:11:09.895Z,445
2018-02-25T14:12:19.630Z,360
2018-02-25T14:13:29.628Z,370
2018-02-25T14:14:39.630Z,415
2018-02-25T14:15:49.362Z,465
2018-02-25T14:16:58.568Z,475
2018-02-25T14:18:08.566Z,515
2018-02-25T14:19:18.291Z,540
2018-02-25T14:20:28.396Z,535
2018-02-25T14:21:38.122Z,485
2018-02-25T14:22:48.129Z,455
2018-02-25T14:23:57.866Z,485
2018-02-25T14:25:07.874Z,500
2018-02-25T14:26:17.881Z,455
2018-02-25T14:27:27.883Z,405
2018-02-25T14:28:37.359Z,390
2018-02-25T14:29:47.352Z,495
2018-02-25T14:30:57.350Z,615
2018-02-25T14:32:07.358Z,860
2018-02-25T14:33:17.365Z,530
2018-02-25T14:34:27.427Z,420
2018-02-25T14:35:36.896Z,410
2018-02-25T14:36:46.899Z,440
2018-02-25T14:37:56.368Z,420
2018-02-25T14:39:06.102Z,480
2018-02-25T14:40:15.830Z,525
2018-02-25T14:41:25.829Z,430
2018-02-25T14:42:35.867Z,330
2018-02-25T14:43:45.668Z,325
2018-02-25T14:44:55.668Z,335
2018-02-25T14:46:05.132Z,365
2018-02-25T14:47:14.604Z,430
2018-02-25T14:48:24.325Z,400
2018-02-25T14:49:33.520Z,335
2018-02-25T14:50:43.521Z,265
2018-02-25T14:51:53.251Z,245
2018-02-25T14:53:03.249Z,235
2018-02-25T14:54:12.977Z,230
2018-02-25T14:55:22.705Z,230
2018-02-25T14:56:32.699Z,230
2018-02-25T14:57:42.704Z,225
2018-02-25T14:58:52.430Z,225
2018-02-25T15:00:02.163Z,305
2018-02-25T15:01:11.724Z,255
2018-02-25T15:02:21.719Z,330
2018-02-25T15:03:31.452Z,295
2018-02-25T15:04:41.461Z,330
2018-02-25T15:05:51.533Z,300
2018-02-25T15:07:01.330Z,370
2018-02-25T15:08:11.330Z,365
2018-02-25T15:09:21.340Z,355
2018-02-25T15:10:31.333Z,405
2018-02-25T15:11:41.157Z,315
2018-02-25T15:12:50.887Z,385
2018-02-25T15:14:00.886Z,335
2018-02-25T15:15:10.345Z,345
2018-02-25T15:16:20.347Z,355
2018-02-25T15:17:30.341Z,255
2018-02-25T15:18:40.334Z,205
2018-02-25T15:19:50.326Z,195
2018-02-25T15:20:59.786Z,190
2018-02-25T15:22:09.783Z,190
2018-02-25T15:23:19.516Z,260
2018-02-25T15:24:28.708Z,250
2018-02-25T15:25:38.700Z,205
2018-02-25T15:26:48.694Z,180
2018-02-25T15:27:58.694Z,185
2018-02-25T15:29:08.692Z,205
2018-02-25T15:30:18.687Z,170
2018-02-25T15:31:28.415Z,250
2018-02-25T15:32:38.418Z,270
2018-02-25T15:33:47.891Z,285
2018-02-25T15:34:57.880Z,235
2018-02-25T15:36:07.343Z,245
2018-02-25T15:37:17.122Z,315
2018-02-25T15:38:26.942Z,305
2018-02-25T15:39:36.672Z,395
2018-02-25T15:40:46.835Z,325
2018-02-25T15:41:56.566Z,265
2018-02-25T15:43:06.560Z,320
2018-02-25T15:44:16.613Z,385
2018-02-25T15:45:26.605Z,350
2018-02-25T15:46:36.328Z,175
2018-02-25T15:47:46.153Z,110
2018-02-25T15:48:56.146Z,95
2018-02-25T15:50:05.880Z,95
2018-02-25T15:51:15.735Z,90
2018-02-25T15:52:25.728Z,90
2018-02-25T15:53:35.452Z,85
2018-02-25T15:54:45.261Z,85
2018-02-25T15:55:54.929Z,80
2018-02-25T15:57:04.934Z,75
2018-02-25T15:58:14.650Z,75
2018-02-25T15:59:24.634Z,75
2018-02-25T16:00:34.091Z,70
2018-02-25T16:01:43.815Z,70
2018-02-25T16:02:53.804Z,65
2018-02-25T16:04:03.796Z,65
2018-02-25T16:05:13.845Z,60
2018-02-25T16:06:23.842Z,60
2018-02-25T16:07:33.306Z,55
2018-02-25T16:08:43.299Z,55
2018-02-25T16:09:53.033Z,55
2018-02-25T16:11:02.756Z,50
2018-02-25T16:12:12.486Z,50
2018-02-25T16:13:22.479Z,45
2018-02-25T16:14:32.477Z,45
2018-02-25T16:15:42.468Z,45
2018-02-25T16:16:52.459Z,40
2018-02-25T16:18:02.197Z,40
2018-02-25T16:19:11.920Z,35
2018-02-25T16:20:21.921Z,35
2018-02-25T16:21:31.964Z,35
2018-02-25T16:22:41.999Z,30
2018-02-25T16:23:51.519Z,30
2018-02-25T16:25:01.508Z,30
2018-02-25T16:26:10.959Z,25
2018-02-25T16:27:20.724Z,25
2018-02-25T16:28:30.722Z,25
2018-02-25T16:29:40.444Z,20
2018-02-25T16:30:50.166Z,20
2018-02-25T16:32:00.156Z,20
2018-02-25T16:33:09.612Z,15
2018-02-25T16:34:19.636Z,15